sensor_id;sensor_type;location;lat;lon;timestamp;P1;durP1;ratioP1;P2;durP2;ratioP2
54929;SDS011;40833;53.238;6.576;2023-11-19T00:00:24;105.63;;;30.37;;
54929;SDS011;40833;53.238;6.576;2023-11-19T00:02:51;93.23;;;28.30;;
54929;SDS011;40833;53.238;6.576;2023-11-19T00:05:17;89.00;;;28.43;;
54929;SDS011;40833;53.238;6.576;2023-11-19T00:07:42;91.87;;;27.37;;
54929;SDS011;40833;53.238;6.576;2023-11-19T00:10:09;75.37;;;26.30;;
54929;SDS011;40833;53.238;6.576;2023-11-19T00:12:44;81.70;;;25.23;;
54929;SDS011;40833;53.238;6.576;2023-11-19T00:15:11;87.80;;;25.90;;
54929;SDS011;40833;53.238;6.576;2023-11-19T00:17:38;93.10;;;25.87;;
54929;SDS011;40833;53.238;6.576;2023-11-19T00:20:13;101.13;;;25.37;;
54929;SDS011;40833;53.238;6.576;2023-11-19T00:22:40;81.87;;;24.10;;
54929;SDS011;40833;53.238;6.576;2023-11-19T00:25:07;85.93;;;24.47;;
54929;SDS011;40833;53.238;6.576;2023-11-19T00:27:33;79.60;;;22.10;;
54929;SDS011;40833;53.238;6.576;2023-11-19T00:29:59;76.27;;;22.47;;
54929;SDS011;40833;53.238;6.576;2023-11-19T00:32:25;78.93;;;22.00;;
54929;SDS011;40833;53.238;6.576;2023-11-19T00:34:51;67.07;;;21.87;;
54929;SDS011;40833;53.238;6.576;2023-11-19T00:37:16;70.53;;;20.37;;
54929;SDS011;40833;53.238;6.576;2023-11-19T00:39:42;87.17;;;21.20;;
54929;SDS011;40833;53.238;6.576;2023-11-19T00:42:11;68.20;;;16.67;;
54929;SDS011;40833;53.238;6.576;2023-11-19T00:44:37;61.50;;;14.37;;
54929;SDS011;40833;53.238;6.576;2023-11-19T00:47:02;52.50;;;13.07;;
54929;SDS011;40833;53.238;6.576;2023-11-19T00:49:28;53.27;;;12.40;;
54929;SDS011;40833;53.238;6.576;2023-11-19T00:51:54;48.30;;;11.13;;
54929;SDS011;40833;53.238;6.576;2023-11-19T00:54:20;57.37;;;10.77;;
54929;SDS011;40833;53.238;6.576;2023-11-19T00:56:46;58.40;;;10.20;;
54929;SDS011;40833;53.238;6.576;2023-11-19T00:59:11;68.53;;;10.77;;
54929;SDS011;40833;53.238;6.576;2023-11-19T01:01:37;49.50;;;9.30;;
54929;SDS011;40833;53.238;6.576;2023-11-19T01:04:03;53.60;;;9.27;;
54929;SDS011;40833;53.238;6.576;2023-11-19T01:06:29;64.33;;;9.43;;
54929;SDS011;40833;53.238;6.576;2023-11-19T01:08:55;59.97;;;8.77;;
54929;SDS011;40833;53.238;6.576;2023-11-19T01:11:24;69.30;;;7.80;;
54929;SDS011;40833;53.238;6.576;2023-11-19T01:13:50;48.80;;;7.20;;
54929;SDS011;40833;53.238;6.576;2023-11-19T01:16:17;58.13;;;7.40;;
54929;SDS011;40833;53.238;6.576;2023-11-19T01:18:44;51.10;;;6.30;;
54929;SDS011;40833;53.238;6.576;2023-11-19T01:21:11;54.33;;;6.53;;
54929;SDS011;40833;53.238;6.576;2023-11-19T01:23:37;70.37;;;6.87;;
54929;SDS011;40833;53.238;6.576;2023-11-19T01:26:03;54.47;;;6.47;;
54929;SDS011;40833;53.238;6.576;2023-11-19T01:28:30;45.90;;;5.73;;
54929;SDS011;40833;53.238;6.576;2023-11-19T01:30:56;52.20;;;6.87;;
54929;SDS011;40833;53.238;6.576;2023-11-19T01:33:22;53.00;;;7.43;;
54929;SDS011;40833;53.238;6.576;2023-11-19T01:35:47;59.63;;;6.70;;
54929;SDS011;40833;53.238;6.576;2023-11-19T01:38:13;52.37;;;8.33;;
54929;SDS011;40833;53.238;6.576;2023-11-19T01:40:39;55.67;;;7.73;;
54929;SDS011;40833;53.238;6.576;2023-11-19T01:43:05;53.83;;;6.27;;
54929;SDS011;40833;53.238;6.576;2023-11-19T01:45:31;60.03;;;6.83;;
54929;SDS011;40833;53.238;6.576;2023-11-19T01:47:58;58.30;;;8.03;;
54929;SDS011;40833;53.238;6.576;2023-11-19T01:50:25;49.50;;;6.17;;
54929;SDS011;40833;53.238;6.576;2023-11-19T01:52:53;49.20;;;5.67;;
54929;SDS011;40833;53.238;6.576;2023-11-19T01:55:20;53.10;;;6.80;;
54929;SDS011;40833;53.238;6.576;2023-11-19T01:57:46;51.53;;;6.97;;
54929;SDS011;40833;53.238;6.576;2023-11-19T02:00:16;47.47;;;5.90;;
54929;SDS011;40833;53.238;6.576;2023-11-19T02:02:44;52.70;;;4.90;;
54929;SDS011;40833;53.238;6.576;2023-11-19T02:05:11;55.70;;;5.90;;
54929;SDS011;40833;53.238;6.576;2023-11-19T02:07:38;54.40;;;5.80;;
54929;SDS011;40833;53.238;6.576;2023-11-19T02:10:04;53.10;;;5.03;;
54929;SDS011;40833;53.238;6.576;2023-11-19T02:12:31;56.90;;;6.53;;
54929;SDS011;40833;53.238;6.576;2023-11-19T02:14:59;53.13;;;6.07;;
54929;SDS011;40833;53.238;6.576;2023-11-19T02:17:25;57.13;;;5.20;;
54929;SDS011;40833;53.238;6.576;2023-11-19T02:19:52;54.97;;;7.20;;
54929;SDS011;40833;53.238;6.576;2023-11-19T02:22:18;55.73;;;6.33;;
54929;SDS011;40833;53.238;6.576;2023-11-19T02:24:45;51.13;;;6.43;;
54929;SDS011;40833;53.238;6.576;2023-11-19T02:27:26;53.27;;;5.63;;
54929;SDS011;40833;53.238;6.576;2023-11-19T02:30:13;51.80;;;6.93;;
54929;SDS011;40833;53.238;6.576;2023-11-19T02:32:40;57.90;;;6.37;;
54929;SDS011;40833;53.238;6.576;2023-11-19T02:35:07;53.47;;;5.80;;
54929;SDS011;40833;53.238;6.576;2023-11-19T02:37:33;45.90;;;6.53;;
54929;SDS011;40833;53.238;6.576;2023-11-19T02:39:59;45.40;;;6.80;;
54929;SDS011;40833;53.238;6.576;2023-11-19T02:42:28;51.93;;;6.73;;
54929;SDS011;40833;53.238;6.576;2023-11-19T02:44:53;52.40;;;5.97;;
54929;SDS011;40833;53.238;6.576;2023-11-19T02:47:19;60.53;;;6.03;;
54929;SDS011;40833;53.238;6.576;2023-11-19T02:49:46;47.33;;;5.17;;
54929;SDS011;40833;53.238;6.576;2023-11-19T02:52:13;48.63;;;5.50;;
54929;SDS011;40833;53.238;6.576;2023-11-19T02:54:39;64.87;;;6.57;;
54929;SDS011;40833;53.238;6.576;2023-11-19T02:57:06;53.60;;;6.17;;
54929;SDS011;40833;53.238;6.576;2023-11-19T02:59:35;45.43;;;5.53;;
54929;SDS011;40833;53.238;6.576;2023-11-19T03:02:04;65.73;;;7.47;;
54929;SDS011;40833;53.238;6.576;2023-11-19T03:04:36;48.20;;;6.00;;
54929;SDS011;40833;53.238;6.576;2023-11-19T03:07:06;52.93;;;5.40;;
54929;SDS011;40833;53.238;6.576;2023-11-19T03:09:34;53.07;;;5.70;;
54929;SDS011;40833;53.238;6.576;2023-11-19T03:12:00;52.33;;;5.77;;
54929;SDS011;40833;53.238;6.576;2023-11-19T03:14:27;64.50;;;6.67;;
54929;SDS011;40833;53.238;6.576;2023-11-19T03:16:52;51.33;;;6.30;;
54929;SDS011;40833;53.238;6.576;2023-11-19T03:19:18;56.20;;;5.83;;
54929;SDS011;40833;53.238;6.576;2023-11-19T03:21:44;57.93;;;5.63;;
54929;SDS011;40833;53.238;6.576;2023-11-19T03:24:10;49.73;;;7.13;;
54929;SDS011;40833;53.238;6.576;2023-11-19T03:26:38;54.73;;;6.03;;
54929;SDS011;40833;53.238;6.576;2023-11-19T03:29:04;47.77;;;5.17;;
54929;SDS011;40833;53.238;6.576;2023-11-19T03:31:30;58.53;;;6.10;;
54929;SDS011;40833;53.238;6.576;2023-11-19T03:33:56;48.17;;;5.00;;
54929;SDS011;40833;53.238;6.576;2023-11-19T03:36:21;46.30;;;5.53;;
54929;SDS011;40833;53.238;6.576;2023-11-19T03:38:47;52.00;;;6.40;;
54929;SDS011;40833;53.238;6.576;2023-11-19T03:41:13;33.70;;;3.83;;
54929;SDS011;40833;53.238;6.576;2023-11-19T03:43:40;54.30;;;4.93;;
54929;SDS011;40833;53.238;6.576;2023-11-19T03:46:16;52.73;;;6.10;;
54929;SDS011;40833;53.238;6.576;2023-11-19T03:48:48;49.07;;;5.67;;
54929;SDS011;40833;53.238;6.576;2023-11-19T03:51:15;57.47;;;7.00;;
54929;SDS011;40833;53.238;6.576;2023-11-19T03:53:42;52.00;;;6.67;;
54929;SDS011;40833;53.238;6.576;2023-11-19T03:56:08;56.77;;;5.67;;
54929;SDS011;40833;53.238;6.576;2023-11-19T03:58:37;47.23;;;5.33;;
54929;SDS011;40833;53.238;6.576;2023-11-19T04:01:04;46.03;;;5.93;;
54929;SDS011;40833;53.238;6.576;2023-11-19T04:03:30;57.10;;;5.97;;
54929;SDS011;40833;53.238;6.576;2023-11-19T04:05:56;58.57;;;7.33;;
54929;SDS011;40833;53.238;6.576;2023-11-19T04:08:22;42.53;;;5.13;;
54929;SDS011;40833;53.238;6.576;2023-11-19T04:10:48;51.97;;;6.23;;
54929;SDS011;40833;53.238;6.576;2023-11-19T04:13:14;55.60;;;6.57;;
54929;SDS011;40833;53.238;6.576;2023-11-19T04:15:39;57.97;;;6.83;;
54929;SDS011;40833;53.238;6.576;2023-11-19T04:18:05;46.20;;;5.60;;
54929;SDS011;40833;53.238;6.576;2023-11-19T04:20:31;45.33;;;6.07;;
54929;SDS011;40833;53.238;6.576;2023-11-19T04:22:56;55.33;;;6.77;;
54929;SDS011;40833;53.238;6.576;2023-11-19T04:25:23;58.83;;;6.83;;
54929;SDS011;40833;53.238;6.576;2023-11-19T04:27:51;57.47;;;6.53;;
54929;SDS011;40833;53.238;6.576;2023-11-19T04:30:17;59.60;;;6.80;;
54929;SDS011;40833;53.238;6.576;2023-11-19T04:32:46;52.87;;;6.27;;
54929;SDS011;40833;53.238;6.576;2023-11-19T04:35:13;72.63;;;8.37;;
54929;SDS011;40833;53.238;6.576;2023-11-19T04:37:39;51.87;;;7.03;;
54929;SDS011;40833;53.238;6.576;2023-11-19T04:40:06;54.30;;;6.00;;
54929;SDS011;40833;53.238;6.576;2023-11-19T04:42:32;62.97;;;7.53;;
54929;SDS011;40833;53.238;6.576;2023-11-19T04:44:58;60.20;;;6.63;;
54929;SDS011;40833;53.238;6.576;2023-11-19T04:47:24;56.63;;;7.37;;
54929;SDS011;40833;53.238;6.576;2023-11-19T04:49:49;62.97;;;7.73;;
54929;SDS011;40833;53.238;6.576;2023-11-19T04:52:15;43.47;;;4.70;;
54929;SDS011;40833;53.238;6.576;2023-11-19T04:54:41;53.57;;;7.17;;
54929;SDS011;40833;53.238;6.576;2023-11-19T04:57:08;54.13;;;6.60;;
54929;SDS011;40833;53.238;6.576;2023-11-19T04:59:37;62.50;;;8.07;;
54929;SDS011;40833;53.238;6.576;2023-11-19T05:02:03;62.93;;;8.07;;
54929;SDS011;40833;53.238;6.576;2023-11-19T05:04:30;65.83;;;7.90;;
54929;SDS011;40833;53.238;6.576;2023-11-19T05:06:56;56.27;;;6.93;;
54929;SDS011;40833;53.238;6.576;2023-11-19T05:09:22;56.53;;;8.20;;
54929;SDS011;40833;53.238;6.576;2023-11-19T05:11:47;70.57;;;7.30;;
54929;SDS011;40833;53.238;6.576;2023-11-19T05:14:13;61.83;;;7.10;;
54929;SDS011;40833;53.238;6.576;2023-11-19T05:16:39;66.83;;;7.43;;
54929;SDS011;40833;53.238;6.576;2023-11-19T05:19:06;66.73;;;7.53;;
54929;SDS011;40833;53.238;6.576;2023-11-19T05:21:31;77.67;;;8.80;;
54929;SDS011;40833;53.238;6.576;2023-11-19T05:23:57;66.00;;;8.60;;
54929;SDS011;40833;53.238;6.576;2023-11-19T05:26:23;62.70;;;7.90;;
54929;SDS011;40833;53.238;6.576;2023-11-19T05:28:49;63.37;;;7.97;;
54929;SDS011;40833;53.238;6.576;2023-11-19T05:31:16;61.10;;;6.90;;
54929;SDS011;40833;53.238;6.576;2023-11-19T05:33:42;65.30;;;7.67;;
54929;SDS011;40833;53.238;6.576;2023-11-19T05:36:08;58.43;;;7.43;;
54929;SDS011;40833;53.238;6.576;2023-11-19T05:38:35;52.27;;;6.27;;
54929;SDS011;40833;53.238;6.576;2023-11-19T05:41:02;49.23;;;4.23;;
54929;SDS011;40833;53.238;6.576;2023-11-19T05:43:28;70.20;;;8.57;;
54929;SDS011;40833;53.238;6.576;2023-11-19T05:45:54;53.60;;;7.07;;
54929;SDS011;40833;53.238;6.576;2023-11-19T05:48:19;54.00;;;6.57;;
54929;SDS011;40833;53.238;6.576;2023-11-19T05:50:45;61.43;;;6.20;;
54929;SDS011;40833;53.238;6.576;2023-11-19T05:53:11;64.63;;;7.97;;
54929;SDS011;40833;53.238;6.576;2023-11-19T05:55:39;52.20;;;7.70;;
54929;SDS011;40833;53.238;6.576;2023-11-19T05:58:11;60.75;;;7.05;;
54929;SDS011;40833;53.238;6.576;2023-11-19T06:00:38;66.67;;;8.47;;
54929;SDS011;40833;53.238;6.576;2023-11-19T06:03:05;48.87;;;7.47;;
54929;SDS011;40833;53.238;6.576;2023-11-19T06:05:32;56.83;;;6.97;;
54929;SDS011;40833;53.238;6.576;2023-11-19T06:07:58;58.80;;;7.27;;
54929;SDS011;40833;53.238;6.576;2023-11-19T06:10:24;57.47;;;6.47;;
54929;SDS011;40833;53.238;6.576;2023-11-19T06:12:56;60.88;;;8.13;;
54929;SDS011;40833;53.238;6.576;2023-11-19T06:15:25;60.40;;;7.73;;
54929;SDS011;40833;53.238;6.576;2023-11-19T06:17:52;63.73;;;6.70;;
54929;SDS011;40833;53.238;6.576;2023-11-19T06:20:18;51.80;;;6.23;;
54929;SDS011;40833;53.238;6.576;2023-11-19T06:22:45;55.40;;;7.07;;
54929;SDS011;40833;53.238;6.576;2023-11-19T06:25:11;58.00;;;6.77;;
54929;SDS011;40833;53.238;6.576;2023-11-19T06:27:39;54.27;;;6.97;;
54929;SDS011;40833;53.238;6.576;2023-11-19T06:30:06;51.33;;;7.13;;
54929;SDS011;40833;53.238;6.576;2023-11-19T06:32:32;59.70;;;7.23;;
54929;SDS011;40833;53.238;6.576;2023-11-19T06:34:58;54.47;;;7.57;;
54929;SDS011;40833;53.238;6.576;2023-11-19T06:37:23;66.63;;;8.30;;
54929;SDS011;40833;53.238;6.576;2023-11-19T06:39:49;55.27;;;6.73;;
54929;SDS011;40833;53.238;6.576;2023-11-19T06:42:15;62.53;;;6.67;;
54929;SDS011;40833;53.238;6.576;2023-11-19T06:44:41;63.20;;;6.83;;
54929;SDS011;40833;53.238;6.576;2023-11-19T06:47:06;59.20;;;7.40;;
54929;SDS011;40833;53.238;6.576;2023-11-19T06:49:32;72.23;;;7.80;;
54929;SDS011;40833;53.238;6.576;2023-11-19T06:51:58;57.30;;;7.90;;
54929;SDS011;40833;53.238;6.576;2023-11-19T06:54:24;57.57;;;6.53;;
54929;SDS011;40833;53.238;6.576;2023-11-19T06:56:49;64.37;;;7.57;;
54929;SDS011;40833;53.238;6.576;2023-11-19T06:59:15;61.83;;;8.17;;
54929;SDS011;40833;53.238;6.576;2023-11-19T07:01:41;61.73;;;7.33;;
54929;SDS011;40833;53.238;6.576;2023-11-19T07:04:10;57.70;;;8.20;;
54929;SDS011;40833;53.238;6.576;2023-11-19T07:06:37;56.53;;;7.10;;
54929;SDS011;40833;53.238;6.576;2023-11-19T07:09:06;59.90;;;7.07;;
54929;SDS011;40833;53.238;6.576;2023-11-19T07:11:37;64.67;;;8.40;;
54929;SDS011;40833;53.238;6.576;2023-11-19T07:14:06;61.53;;;8.45;;
54929;SDS011;40833;53.238;6.576;2023-11-19T07:16:33;62.83;;;6.40;;
54929;SDS011;40833;53.238;6.576;2023-11-19T07:19:02;59.07;;;8.57;;
54929;SDS011;40833;53.238;6.576;2023-11-19T07:21:28;55.87;;;6.63;;
54929;SDS011;40833;53.238;6.576;2023-11-19T07:23:54;63.93;;;6.90;;
54929;SDS011;40833;53.238;6.576;2023-11-19T07:26:20;56.97;;;6.93;;
54929;SDS011;40833;53.238;6.576;2023-11-19T07:28:47;65.10;;;6.47;;
54929;SDS011;40833;53.238;6.576;2023-11-19T07:31:13;57.43;;;6.40;;
54929;SDS011;40833;53.238;6.576;2023-11-19T07:33:41;57.63;;;8.47;;
54929;SDS011;40833;53.238;6.576;2023-11-19T07:36:08;61.20;;;7.90;;
54929;SDS011;40833;53.238;6.576;2023-11-19T07:38:34;48.87;;;6.37;;
54929;SDS011;40833;53.238;6.576;2023-11-19T07:41:00;55.03;;;7.50;;
54929;SDS011;40833;53.238;6.576;2023-11-19T07:43:26;58.03;;;7.30;;
54929;SDS011;40833;53.238;6.576;2023-11-19T07:45:52;52.40;;;6.40;;
54929;SDS011;40833;53.238;6.576;2023-11-19T07:48:17;68.53;;;7.53;;
54929;SDS011;40833;53.238;6.576;2023-11-19T07:50:48;66.20;;;8.43;;
54929;SDS011;40833;53.238;6.576;2023-11-19T07:53:15;58.23;;;6.97;;
54929;SDS011;40833;53.238;6.576;2023-11-19T07:55:41;64.50;;;7.53;;
54929;SDS011;40833;53.238;6.576;2023-11-19T07:58:08;48.90;;;6.10;;
54929;SDS011;40833;53.238;6.576;2023-11-19T08:00:35;60.13;;;6.63;;
54929;SDS011;40833;53.238;6.576;2023-11-19T08:03:01;57.63;;;7.73;;
54929;SDS011;40833;53.238;6.576;2023-11-19T08:05:26;60.27;;;7.93;;
54929;SDS011;40833;53.238;6.576;2023-11-19T08:07:52;57.77;;;6.90;;
54929;SDS011;40833;53.238;6.576;2023-11-19T08:10:18;53.30;;;6.57;;
54929;SDS011;40833;53.238;6.576;2023-11-19T08:12:44;67.43;;;10.03;;
54929;SDS011;40833;53.238;6.576;2023-11-19T08:15:10;55.07;;;9.20;;
54929;SDS011;40833;53.238;6.576;2023-11-19T08:17:36;52.00;;;8.40;;
54929;SDS011;40833;53.238;6.576;2023-11-19T08:20:03;48.40;;;6.23;;
54929;SDS011;40833;53.238;6.576;2023-11-19T08:22:30;52.23;;;6.93;;
54929;SDS011;40833;53.238;6.576;2023-11-19T08:24:56;49.60;;;6.37;;
54929;SDS011;40833;53.238;6.576;2023-11-19T08:27:22;67.03;;;8.73;;
54929;SDS011;40833;53.238;6.576;2023-11-19T08:29:55;61.90;;;8.13;;
54929;SDS011;40833;53.238;6.576;2023-11-19T08:32:22;66.53;;;8.23;;
54929;SDS011;40833;53.238;6.576;2023-11-19T08:34:48;64.27;;;7.13;;
54929;SDS011;40833;53.238;6.576;2023-11-19T08:37:14;63.10;;;6.87;;
54929;SDS011;40833;53.238;6.576;2023-11-19T08:39:40;58.27;;;6.30;;
54929;SDS011;40833;53.238;6.576;2023-11-19T08:42:07;54.53;;;7.37;;
54929;SDS011;40833;53.238;6.576;2023-11-19T08:44:32;42.00;;;6.43;;
54929;SDS011;40833;53.238;6.576;2023-11-19T08:46:58;57.93;;;7.07;;
54929;SDS011;40833;53.238;6.576;2023-11-19T08:49:24;59.30;;;6.60;;
54929;SDS011;40833;53.238;6.576;2023-11-19T08:51:49;66.13;;;7.93;;
54929;SDS011;40833;53.238;6.576;2023-11-19T08:54:15;63.80;;;8.63;;
54929;SDS011;40833;53.238;6.576;2023-11-19T08:56:41;52.17;;;5.63;;
54929;SDS011;40833;53.238;6.576;2023-11-19T08:59:07;54.30;;;7.40;;
54929;SDS011;40833;53.238;6.576;2023-11-19T09:01:33;53.43;;;6.90;;
54929;SDS011;40833;53.238;6.576;2023-11-19T09:03:59;61.37;;;8.40;;
54929;SDS011;40833;53.238;6.576;2023-11-19T09:06:25;50.93;;;7.70;;
54929;SDS011;40833;53.238;6.576;2023-11-19T09:08:51;53.10;;;7.43;;
54929;SDS011;40833;53.238;6.576;2023-11-19T09:11:17;72.70;;;8.87;;
54929;SDS011;40833;53.238;6.576;2023-11-19T09:13:42;66.73;;;10.80;;
54929;SDS011;40833;53.238;6.576;2023-11-19T09:16:11;53.90;;;7.90;;
54929;SDS011;40833;53.238;6.576;2023-11-19T09:18:37;62.03;;;8.03;;
54929;SDS011;40833;53.238;6.576;2023-11-19T09:21:03;62.83;;;7.77;;
54929;SDS011;40833;53.238;6.576;2023-11-19T09:23:29;52.00;;;6.93;;
54929;SDS011;40833;53.238;6.576;2023-11-19T09:25:57;61.80;;;8.93;;
54929;SDS011;40833;53.238;6.576;2023-11-19T09:28:23;49.50;;;6.70;;
54929;SDS011;40833;53.238;6.576;2023-11-19T09:30:49;56.53;;;7.37;;
54929;SDS011;40833;53.238;6.576;2023-11-19T09:33:14;55.53;;;5.90;;
54929;SDS011;40833;53.238;6.576;2023-11-19T09:35:40;56.93;;;7.43;;
54929;SDS011;40833;53.238;6.576;2023-11-19T09:38:05;62.03;;;7.93;;
54929;SDS011;40833;53.238;6.576;2023-11-19T09:40:31;55.33;;;7.73;;
54929;SDS011;40833;53.238;6.576;2023-11-19T09:42:57;58.33;;;7.17;;
54929;SDS011;40833;53.238;6.576;2023-11-19T09:45:22;57.50;;;7.07;;
54929;SDS011;40833;53.238;6.576;2023-11-19T09:47:52;52.00;;;7.97;;
54929;SDS011;40833;53.238;6.576;2023-11-19T09:50:19;51.43;;;7.10;;
54929;SDS011;40833;53.238;6.576;2023-11-19T09:52:48;67.03;;;9.70;;
54929;SDS011;40833;53.238;6.576;2023-11-19T09:55:14;51.27;;;7.20;;
54929;SDS011;40833;53.238;6.576;2023-11-19T09:57:40;55.53;;;9.53;;
54929;SDS011;40833;53.238;6.576;2023-11-19T10:00:07;57.50;;;6.83;;
54929;SDS011;40833;53.238;6.576;2023-11-19T10:02:35;51.93;;;7.77;;
54929;SDS011;40833;53.238;6.576;2023-11-19T10:05:03;61.73;;;8.57;;
54929;SDS011;40833;53.238;6.576;2023-11-19T10:07:31;58.30;;;8.13;;
54929;SDS011;40833;53.238;6.576;2023-11-19T10:10:01;51.30;;;6.83;;
54929;SDS011;40833;53.238;6.576;2023-11-19T10:12:29;52.43;;;6.30;;
54929;SDS011;40833;53.238;6.576;2023-11-19T10:14:56;63.47;;;7.60;;
54929;SDS011;40833;53.238;6.576;2023-11-19T10:17:28;58.30;;;7.40;;
54929;SDS011;40833;53.238;6.576;2023-11-19T10:19:57;65.57;;;7.25;;
54929;SDS011;40833;53.238;6.576;2023-11-19T10:22:23;54.97;;;6.93;;
54929;SDS011;40833;53.238;6.576;2023-11-19T10:24:51;65.20;;;9.67;;
54929;SDS011;40833;53.238;6.576;2023-11-19T10:27:17;53.80;;;7.90;;
54929;SDS011;40833;53.238;6.576;2023-11-19T10:29:46;47.47;;;6.13;;
54929;SDS011;40833;53.238;6.576;2023-11-19T10:32:13;45.70;;;6.80;;
54929;SDS011;40833;53.238;6.576;2023-11-19T10:34:40;50.50;;;7.53;;
54929;SDS011;40833;53.238;6.576;2023-11-19T10:37:06;54.47;;;5.83;;
54929;SDS011;40833;53.238;6.576;2023-11-19T10:39:54;50.47;;;6.33;;
54929;SDS011;40833;53.238;6.576;2023-11-19T10:42:20;56.77;;;7.00;;
54929;SDS011;40833;53.238;6.576;2023-11-19T10:44:46;56.70;;;7.53;;
54929;SDS011;40833;53.238;6.576;2023-11-19T10:47:12;50.57;;;6.40;;
54929;SDS011;40833;53.238;6.576;2023-11-19T10:49:39;55.10;;;6.57;;
54929;SDS011;40833;53.238;6.576;2023-11-19T10:52:06;51.03;;;7.70;;
54929;SDS011;40833;53.238;6.576;2023-11-19T10:54:34;51.20;;;8.63;;
54929;SDS011;40833;53.238;6.576;2023-11-19T10:57:01;53.67;;;7.23;;
54929;SDS011;40833;53.238;6.576;2023-11-19T10:59:30;52.90;;;5.97;;
54929;SDS011;40833;53.238;6.576;2023-11-19T11:01:59;41.42;;;5.90;;
54929;SDS011;40833;53.238;6.576;2023-11-19T11:04:30;44.13;;;6.25;;
54929;SDS011;40833;53.238;6.576;2023-11-19T11:06:58;52.20;;;6.97;;
54929;SDS011;40833;53.238;6.576;2023-11-19T11:09:28;52.23;;;6.90;;
54929;SDS011;40833;53.238;6.576;2023-11-19T11:11:55;48.10;;;6.23;;
54929;SDS011;40833;53.238;6.576;2023-11-19T11:14:22;59.13;;;6.20;;
54929;SDS011;40833;53.238;6.576;2023-11-19T11:16:50;41.17;;;6.07;;
54929;SDS011;40833;53.238;6.576;2023-11-19T11:19:18;45.97;;;6.10;;
54929;SDS011;40833;53.238;6.576;2023-11-19T11:21:46;41.33;;;5.43;;
54929;SDS011;40833;53.238;6.576;2023-11-19T11:29:52;41.00;;;5.97;;
54929;SDS011;40833;53.238;6.576;2023-11-19T11:32:48;52.13;;;6.67;;
54929;SDS011;40833;53.238;6.576;2023-11-19T11:38:21;45.27;;;7.03;;
54929;SDS011;40833;53.238;6.576;2023-11-19T11:43:53;46.00;;;6.17;;
54929;SDS011;40833;53.238;6.576;2023-11-19T11:49:00;41.07;;;5.57;;
54929;SDS011;40833;53.238;6.576;2023-11-19T11:51:57;44.53;;;5.40;;
54929;SDS011;40833;53.238;6.576;2023-11-19T12:02:13;40.25;;;5.47;;
54929;SDS011;40833;53.238;6.576;2023-11-19T12:04:41;45.87;;;8.03;;
54929;SDS011;40833;53.238;6.576;2023-11-19T12:09:47;53.67;;;5.77;;
54929;SDS011;40833;53.238;6.576;2023-11-19T12:12:22;53.23;;;5.97;;
54929;SDS011;40833;53.238;6.576;2023-11-19T12:20:01;35.97;;;4.60;;
54929;SDS011;40833;53.238;6.576;2023-11-19T12:22:31;40.10;;;4.70;;
54929;SDS011;40833;53.238;6.576;2023-11-19T12:24:56;40.13;;;4.90;;
54929;SDS011;40833;53.238;6.576;2023-11-19T12:27:23;32.50;;;5.37;;
54929;SDS011;40833;53.238;6.576;2023-11-19T12:29:49;39.07;;;5.10;;
54929;SDS011;40833;53.238;6.576;2023-11-19T12:32:15;39.33;;;4.53;;
54929;SDS011;40833;53.238;6.576;2023-11-19T12:34:41;43.60;;;5.77;;
54929;SDS011;40833;53.238;6.576;2023-11-19T12:37:07;35.43;;;4.50;;
54929;SDS011;40833;53.238;6.576;2023-11-19T12:39:36;31.97;;;4.97;;
54929;SDS011;40833;53.238;6.576;2023-11-19T12:42:01;41.23;;;5.33;;
54929;SDS011;40833;53.238;6.576;2023-11-19T12:44:27;40.43;;;5.20;;
54929;SDS011;40833;53.238;6.576;2023-11-19T12:47:06;41.57;;;6.43;;
54929;SDS011;40833;53.238;6.576;2023-11-19T12:49:32;44.03;;;5.37;;
54929;SDS011;40833;53.238;6.576;2023-11-19T12:51:59;41.27;;;5.10;;
54929;SDS011;40833;53.238;6.576;2023-11-19T12:54:31;40.53;;;4.87;;
54929;SDS011;40833;53.238;6.576;2023-11-19T12:57:01;39.87;;;4.90;;
54929;SDS011;40833;53.238;6.576;2023-11-19T12:59:27;42.03;;;6.37;;
54929;SDS011;40833;53.238;6.576;2023-11-19T13:01:56;45.10;;;5.97;;
54929;SDS011;40833;53.238;6.576;2023-11-19T13:04:23;30.30;;;4.50;;
54929;SDS011;40833;53.238;6.576;2023-11-19T13:06:53;42.40;;;5.97;;
54929;SDS011;40833;53.238;6.576;2023-11-19T13:09:25;36.53;;;4.57;;
54929;SDS011;40833;53.238;6.576;2023-11-19T13:11:52;32.73;;;5.10;;
54929;SDS011;40833;53.238;6.576;2023-11-19T13:14:19;35.17;;;4.73;;
54929;SDS011;40833;53.238;6.576;2023-11-19T13:16:45;36.30;;;4.50;;
54929;SDS011;40833;53.238;6.576;2023-11-19T13:19:15;37.30;;;5.10;;
54929;SDS011;40833;53.238;6.576;2023-11-19T13:21:44;37.23;;;5.00;;
54929;SDS011;40833;53.238;6.576;2023-11-19T13:24:12;39.00;;;5.43;;
54929;SDS011;40833;53.238;6.576;2023-11-19T13:26:38;38.73;;;5.33;;
54929;SDS011;40833;53.238;6.576;2023-11-19T13:29:04;38.80;;;4.30;;
54929;SDS011;40833;53.238;6.576;2023-11-19T13:31:30;36.13;;;4.87;;
54929;SDS011;40833;53.238;6.576;2023-11-19T13:33:55;37.50;;;5.80;;
54929;SDS011;40833;53.238;6.576;2023-11-19T13:36:23;37.90;;;5.47;;
54929;SDS011;40833;53.238;6.576;2023-11-19T13:38:49;39.80;;;5.07;;
54929;SDS011;40833;53.238;6.576;2023-11-19T13:41:15;38.03;;;5.63;;
54929;SDS011;40833;53.238;6.576;2023-11-19T13:43:40;37.47;;;4.53;;
54929;SDS011;40833;53.238;6.576;2023-11-19T13:46:06;42.40;;;5.53;;
54929;SDS011;40833;53.238;6.576;2023-11-19T13:48:35;42.27;;;6.50;;
54929;SDS011;40833;53.238;6.576;2023-11-19T13:51:00;41.00;;;3.93;;
54929;SDS011;40833;53.238;6.576;2023-11-19T13:53:26;35.00;;;4.93;;
54929;SDS011;40833;53.238;6.576;2023-11-19T13:55:52;40.60;;;4.80;;
54929;SDS011;40833;53.238;6.576;2023-11-19T13:58:18;42.60;;;5.57;;
54929;SDS011;40833;53.238;6.576;2023-11-19T14:00:43;38.47;;;4.67;;
54929;SDS011;40833;53.238;6.576;2023-11-19T14:03:09;40.10;;;5.27;;
54929;SDS011;40833;53.238;6.576;2023-11-19T14:05:38;40.17;;;4.60;;
54929;SDS011;40833;53.238;6.576;2023-11-19T14:08:06;37.67;;;5.67;;
54929;SDS011;40833;53.238;6.576;2023-11-19T14:13:05;45.10;;;5.13;;
54929;SDS011;40833;53.238;6.576;2023-11-19T14:15:33;46.23;;;4.90;;
54929;SDS011;40833;53.238;6.576;2023-11-19T14:18:00;53.63;;;6.23;;
54929;SDS011;40833;53.238;6.576;2023-11-19T14:20:25;37.63;;;4.93;;
54929;SDS011;40833;53.238;6.576;2023-11-19T14:22:51;40.73;;;5.60;;
54929;SDS011;40833;53.238;6.576;2023-11-19T14:25:18;42.83;;;4.90;;
54929;SDS011;40833;53.238;6.576;2023-11-19T14:27:44;48.80;;;6.00;;
54929;SDS011;40833;53.238;6.576;2023-11-19T14:30:11;37.23;;;4.40;;
54929;SDS011;40833;53.238;6.576;2023-11-19T14:32:41;47.40;;;4.97;;
54929;SDS011;40833;53.238;6.576;2023-11-19T14:35:09;37.77;;;4.73;;
54929;SDS011;40833;53.238;6.576;2023-11-19T14:37:35;37.80;;;4.83;;
54929;SDS011;40833;53.238;6.576;2023-11-19T14:40:01;44.20;;;5.80;;
54929;SDS011;40833;53.238;6.576;2023-11-19T14:42:31;41.47;;;5.70;;
54929;SDS011;40833;53.238;6.576;2023-11-19T14:44:57;33.70;;;4.40;;
54929;SDS011;40833;53.238;6.576;2023-11-19T14:47:23;47.90;;;5.33;;
54929;SDS011;40833;53.238;6.576;2023-11-19T14:49:49;38.40;;;4.50;;
54929;SDS011;40833;53.238;6.576;2023-11-19T14:52:15;40.57;;;5.33;;
54929;SDS011;40833;53.238;6.576;2023-11-19T14:54:41;45.23;;;6.20;;
54929;SDS011;40833;53.238;6.576;2023-11-19T14:57:07;46.97;;;6.27;;
54929;SDS011;40833;53.238;6.576;2023-11-19T14:59:36;42.00;;;5.90;;
54929;SDS011;40833;53.238;6.576;2023-11-19T15:02:02;50.63;;;5.43;;
54929;SDS011;40833;53.238;6.576;2023-11-19T15:04:28;36.83;;;4.53;;